createdAt,value
2023-03-25T00:00:57.458Z,8.40
2023-03-25T00:03:28.835Z,8.40
2023-03-25T00:05:56.994Z,8.40
2023-03-25T00:08:24.617Z,8.40
2023-03-25T00:10:56.301Z,8.30
2023-03-25T00:13:23.628Z,8.30
2023-03-25T00:15:54.010Z,8.40
2023-03-25T00:18:21.347Z,8.40
2023-03-25T00:20:52.149Z,8.40
2023-03-25T00:23:22.545Z,8.40
2023-03-25T00:25:50.034Z,8.40
2023-03-25T00:28:16.927Z,8.50
2023-03-25T00:30:45.087Z,8.50
2023-03-25T00:33:11.987Z,8.50
2023-03-25T00:35:39.344Z,8.60
2023-03-25T00:38:05.935Z,8.60
2023-03-25T00:40:33.153Z,8.60
2023-03-25T00:42:59.683Z,8.70
2023-03-25T00:45:26.503Z,8.70
2023-03-25T00:47:53.107Z,8.70
2023-03-25T00:50:19.864Z,8.70
2023-03-25T00:52:46.441Z,8.70
2023-03-25T00:55:13.103Z,8.70
2023-03-25T00:57:39.746Z,8.80
2023-03-25T01:00:09.621Z,8.70
2023-03-25T01:02:36.693Z,8.70
2023-03-25T01:05:03.518Z,8.70
2023-03-25T01:07:30.110Z,8.80
2023-03-25T01:09:56.661Z,8.80
2023-03-25T01:12:23.249Z,8.80
2023-03-25T01:14:49.831Z,8.90
2023-03-25T01:17:16.376Z,8.90
2023-03-25T01:19:43.007Z,9.00
2023-03-25T01:22:09.622Z,9.00
2023-03-25T01:24:36.192Z,8.90
2023-03-25T01:27:02.745Z,8.90
2023-03-25T01:29:29.819Z,8.90
2023-03-25T01:31:56.778Z,9.00
2023-03-25T01:34:24.333Z,9.00
2023-03-25T01:36:50.946Z,9.00
2023-03-25T01:39:18.859Z,9.00
2023-03-25T01:41:50.177Z,9.00
2023-03-25T01:44:20.103Z,9.00
2023-03-25T01:46:47.321Z,8.90
2023-03-25T01:49:32.144Z,9.00
2023-03-25T01:52:23.339Z,9.00
2023-03-25T01:54:53.188Z,8.90
2023-03-25T01:57:21.972Z,8.90
2023-03-25T01:59:50.256Z,8.90
2023-03-25T02:02:17.848Z,8.80
2023-03-25T02:04:53.614Z,8.90
2023-03-25T02:07:20.168Z,8.90
2023-03-25T02:09:46.775Z,8.90
2023-03-25T02:12:13.398Z,8.80
2023-03-25T02:14:40.241Z,8.80
2023-03-25T02:17:25.262Z,8.80
2023-03-25T02:20:04.004Z,8.80
2023-03-25T02:22:51.403Z,8.80
2023-03-25T02:25:32.340Z,8.80
2023-03-25T02:28:27.069Z,8.80
2023-03-25T02:31:11.593Z,8.80
2023-03-25T02:33:46.408Z,8.80
2023-03-25T02:36:34.221Z,8.80
2023-03-25T02:39:07.336Z,8.80
2023-03-25T02:42:03.917Z,8.80
2023-03-25T02:44:37.422Z,8.80
2023-03-25T02:47:17.086Z,8.80
2023-03-25T02:49:58.080Z,8.80
2023-03-25T02:52:31.304Z,8.80
2023-03-25T02:55:01.173Z,8.80
2023-03-25T02:57:30.533Z,8.80
2023-03-25T02:59:58.401Z,8.80
2023-03-25T03:02:29.069Z,8.70
2023-03-25T03:04:56.636Z,8.70
2023-03-25T03:07:41.162Z,8.70
2023-03-25T03:10:21.749Z,8.60
2023-03-25T03:13:16.453Z,8.50
2023-03-25T03:16:02.721Z,8.60
2023-03-25T03:18:43.015Z,8.50
2023-03-25T03:21:18.356Z,8.50
2023-03-25T03:23:59.619Z,8.40
2023-03-25T03:26:37.080Z,8.40
2023-03-25T03:29:14.201Z,8.30
2023-03-25T03:31:48.636Z,8.30
2023-03-25T03:34:47.046Z,8.20
2023-03-25T03:37:29.947Z,8.20
2023-03-25T03:39:57.889Z,8.20
2023-03-25T03:42:38.581Z,8.20
2023-03-25T03:45:12.648Z,8.20
2023-03-25T03:47:42.703Z,8.10
2023-03-25T03:50:14.796Z,8.20
2023-03-25T03:53:03.525Z,8.10
2023-03-25T03:55:41.122Z,8.10
2023-03-25T03:58:37.950Z,8.10
2023-03-25T04:01:19.385Z,8.20
2023-03-25T04:04:14.066Z,8.20
2023-03-25T04:06:47.476Z,8.20
2023-03-25T04:09:28.306Z,8.20
2023-03-25T04:12:00.475Z,8.20
2023-03-25T04:14:27.596Z,8.20
2023-03-25T04:16:55.568Z,8.20
2023-03-25T04:19:22.192Z,8.20
2023-03-25T04:21:48.807Z,8.20
2023-03-25T04:24:16.167Z,8.20
2023-03-25T04:26:43.334Z,8.20
2023-03-25T04:29:09.985Z,8.30
2023-03-25T04:31:36.626Z,8.30
2023-03-25T04:34:03.698Z,8.30
2023-03-25T04:36:30.573Z,8.30
2023-03-25T04:38:57.131Z,8.40
2023-03-25T04:41:23.737Z,8.40
2023-03-25T04:43:50.373Z,8.30
2023-03-25T04:46:17.957Z,8.30
2023-03-25T04:48:45.282Z,8.30
2023-03-25T04:51:13.479Z,8.30
2023-03-25T04:53:41.375Z,8.30
2023-03-25T04:56:17.448Z,8.30
2023-03-25T04:58:45.277Z,8.30
2023-03-25T05:01:24.488Z,8.40
2023-03-25T05:03:51.111Z,8.30
2023-03-25T05:06:18.216Z,8.30
2023-03-25T05:08:44.852Z,8.40
2023-03-25T05:11:11.421Z,8.40
2023-03-25T05:13:37.994Z,8.40
2023-03-25T05:16:04.921Z,8.40
2023-03-25T05:18:31.549Z,8.30
2023-03-25T05:20:58.115Z,8.30
2023-03-25T05:23:24.721Z,8.30
2023-03-25T05:25:51.703Z,8.30
2023-03-25T05:28:19.021Z,8.30
2023-03-25T05:30:47.148Z,8.30
2023-03-25T05:33:16.140Z,8.30
2023-03-25T05:35:43.827Z,8.20
2023-03-25T05:38:11.357Z,8.20
2023-03-25T05:40:38.548Z,8.20
2023-03-25T05:43:05.124Z,8.20
2023-03-25T05:45:31.663Z,8.20
2023-03-25T05:47:58.255Z,8.20
2023-03-25T05:50:24.995Z,8.20
2023-03-25T05:52:51.587Z,8.20
2023-03-25T05:55:21.049Z,8.20
2023-03-25T05:57:47.906Z,8.20
2023-03-25T06:00:16.168Z,8.10
2023-03-25T06:02:42.848Z,8.20
2023-03-25T06:05:11.049Z,8.10
2023-03-25T06:07:37.592Z,8.10
2023-03-25T06:10:05.434Z,8.10
2023-03-25T06:12:32.062Z,8.00
2023-03-25T06:14:59.120Z,8.10
2023-03-25T06:17:25.710Z,8.10
2023-03-25T06:19:52.490Z,8.10
2023-03-25T06:22:19.283Z,8.10
2023-03-25T06:24:45.902Z,8.00
2023-03-25T06:27:15.885Z,8.00
2023-03-25T06:29:42.461Z,8.00
2023-03-25T06:32:11.278Z,7.90
2023-03-25T06:34:38.109Z,7.90
2023-03-25T06:37:05.181Z,7.90
2023-03-25T06:39:31.935Z,7.90
2023-03-25T06:42:02.081Z,7.90
2023-03-25T06:44:28.682Z,7.90
2023-03-25T06:46:55.269Z,7.90
2023-03-25T06:49:22.084Z,7.90
2023-03-25T06:51:49.060Z,7.90
2023-03-25T06:54:15.634Z,7.90
2023-03-25T06:56:42.210Z,7.80
2023-03-25T06:59:09.035Z,7.80
2023-03-25T07:01:35.648Z,7.80
2023-03-25T07:04:02.206Z,7.90
2023-03-25T07:06:28.828Z,7.90
2023-03-25T07:08:55.359Z,7.90
2023-03-25T07:11:28.152Z,8.00
2023-03-25T07:13:55.204Z,8.10
2023-03-25T07:16:23.157Z,8.10
2023-03-25T07:18:50.221Z,8.10
2023-03-25T07:21:17.173Z,8.30
2023-03-25T07:23:43.912Z,8.40
2023-03-25T07:26:10.514Z,8.50
2023-03-25T07:28:37.125Z,8.50
2023-03-25T07:31:10.244Z,8.40
2023-03-25T07:33:37.008Z,8.30
2023-03-25T07:36:05.383Z,8.20
2023-03-25T07:38:32.556Z,8.10
2023-03-25T07:40:59.134Z,8.10
2023-03-25T07:43:25.800Z,8.30
2023-03-25T07:45:53.841Z,8.50
2023-03-25T07:48:20.414Z,8.50
2023-03-25T07:50:46.980Z,8.40
2023-03-25T07:53:13.520Z,8.40
2023-03-25T07:55:40.066Z,8.40
2023-03-25T07:58:06.659Z,8.50
2023-03-25T08:00:33.285Z,8.70
2023-03-25T08:02:59.941Z,8.90
2023-03-25T08:05:26.569Z,8.90
2023-03-25T08:07:53.445Z,9.00
2023-03-25T08:10:20.132Z,9.00
2023-03-25T08:12:46.783Z,9.00
2023-03-25T08:15:13.664Z,9.20
2023-03-25T08:17:40.579Z,9.30
2023-03-25T08:20:07.727Z,9.30
2023-03-25T08:22:34.494Z,9.40
2023-03-25T08:25:01.024Z,9.40
2023-03-25T08:27:27.574Z,9.30
2023-03-25T08:29:54.198Z,9.30
2023-03-25T08:32:21.192Z,9.10
2023-03-25T08:34:48.133Z,8.90
2023-03-25T08:37:14.719Z,8.80
2023-03-25T08:39:41.992Z,8.70
2023-03-25T08:42:09.307Z,8.70
2023-03-25T08:44:36.009Z,8.80
2023-03-25T08:47:02.754Z,8.70
2023-03-25T08:49:29.529Z,8.80
2023-03-25T08:51:56.470Z,8.80
2023-03-25T08:54:23.603Z,8.70
2023-03-25T08:56:50.352Z,8.80
2023-03-25T08:59:17.001Z,8.80
2023-03-25T09:04:11.955Z,9.10
2023-03-25T09:06:47.660Z,9.20
2023-03-25T09:09:15.447Z,9.30
2023-03-25T09:11:42.095Z,9.40
2023-03-25T09:14:08.678Z,9.50
2023-03-25T09:16:35.391Z,9.60
2023-03-25T09:19:03.115Z,9.60
2023-03-25T09:21:29.842Z,9.80
2023-03-25T09:23:56.422Z,9.80
2023-03-25T09:26:22.998Z,9.90
2023-03-25T09:28:49.560Z,10.10
2023-03-25T09:31:16.169Z,10.00
2023-03-25T09:33:43.101Z,10.30
2023-03-25T09:36:09.827Z,10.30
2023-03-25T09:38:36.420Z,10.40
2023-03-25T09:41:23.210Z,10.40
2023-03-25T09:44:18.914Z,10.20
2023-03-25T09:46:45.973Z,10.10
2023-03-25T09:49:21.522Z,9.90
2023-03-25T09:51:50.641Z,9.90
2023-03-25T09:54:29.353Z,9.90
2023-03-25T09:57:02.393Z,9.90
2023-03-25T09:59:49.948Z,10.00
2023-03-25T10:02:42.033Z,10.00
2023-03-25T10:05:46.059Z,10.20
2023-03-25T10:08:53.663Z,10.10
2023-03-25T10:11:37.220Z,10.00
2023-03-25T10:14:37.141Z,10.00
2023-03-25T10:17:21.363Z,9.90
2023-03-25T10:20:11.586Z,9.90
2023-03-25T10:22:44.297Z,9.80
2023-03-25T10:25:20.363Z,9.70
2023-03-25T10:27:51.210Z,9.80
2023-03-25T10:30:40.035Z,9.90
2023-03-25T10:33:18.868Z,10.20
2023-03-25T10:35:48.366Z,10.40
2023-03-25T10:38:20.859Z,10.60
2023-03-25T10:43:36.670Z,11.10
2023-03-25T10:46:17.012Z,11.00
2023-03-25T10:48:44.923Z,11.20
2023-03-25T10:51:15.459Z,11.10
2023-03-25T10:53:45.092Z,10.70
2023-03-25T10:56:25.249Z,10.70
2023-03-25T10:58:54.807Z,10.90
2023-03-25T11:01:34.401Z,11.20
2023-03-25T11:04:02.187Z,11.20
2023-03-25T11:06:34.789Z,11.50
2023-03-25T11:09:14.406Z,11.80
2023-03-25T11:11:42.261Z,11.80
2023-03-25T11:14:10.139Z,11.60
2023-03-25T11:16:46.311Z,11.70
2023-03-25T11:19:53.188Z,11.60
2023-03-25T11:22:26.421Z,11.50
2023-03-25T11:25:01.548Z,11.80
2023-03-25T11:27:29.800Z,12.00
2023-03-25T11:30:07.186Z,11.50
2023-03-25T11:32:37.109Z,11.20
2023-03-25T11:35:15.393Z,11.30
2023-03-25T11:37:54.069Z,11.50
2023-03-25T11:40:20.943Z,11.40
2023-03-25T11:43:01.522Z,11.30
2023-03-25T11:45:38.058Z,11.20
2023-03-25T11:48:21.433Z,11.10
2023-03-25T11:50:54.103Z,11.00
2023-03-25T11:53:23.889Z,10.90
2023-03-25T11:55:54.165Z,10.70
2023-03-25T11:58:27.718Z,10.60
2023-03-25T12:01:06.355Z,10.50
2023-03-25T12:03:35.203Z,10.70
2023-03-25T12:06:17.118Z,10.80
2023-03-25T12:08:43.724Z,10.70
2023-03-25T12:11:44.976Z,10.60
2023-03-25T12:14:20.469Z,10.80
2023-03-25T12:17:05.918Z,10.90
2023-03-25T12:20:00.181Z,11.20
2023-03-25T12:22:32.665Z,11.30
2023-03-25T12:25:14.112Z,11.20
2023-03-25T12:27:49.490Z,11.40
2023-03-25T12:30:16.080Z,11.60
2023-03-25T12:32:53.887Z,11.40
2023-03-25T12:35:30.524Z,11.50
2023-03-25T12:38:17.703Z,11.60
2023-03-25T12:41:11.157Z,11.60
2023-03-25T12:44:04.725Z,11.90
2023-03-25T12:46:44.947Z,12.10
2023-03-25T12:49:39.547Z,12.50
2023-03-25T12:52:25.814Z,12.30
2023-03-25T12:54:55.309Z,12.30
2023-03-25T12:57:42.536Z,12.10
2023-03-25T13:00:38.631Z,11.90
2023-03-25T13:03:18.344Z,11.50
2023-03-25T13:05:57.075Z,11.90
2023-03-25T13:08:29.115Z,11.90
2023-03-25T13:11:02.770Z,12.00
2023-03-25T13:13:31.456Z,12.10
2023-03-25T13:16:16.795Z,12.10
2023-03-25T13:19:28.790Z,12.00
2023-03-25T13:22:03.274Z,12.40
2023-03-25T13:24:29.771Z,12.80
2023-03-25T13:26:59.368Z,12.70
2023-03-25T13:29:33.856Z,12.70
2023-03-25T13:32:02.790Z,12.60
2023-03-25T13:34:39.955Z,12.40
2023-03-25T13:37:22.572Z,12.40
2023-03-25T13:40:10.691Z,12.50
2023-03-25T13:42:47.545Z,12.70
2023-03-25T13:45:19.842Z,12.70
2023-03-25T13:47:56.601Z,13.00
2023-03-25T13:50:29.133Z,13.00
2023-03-25T13:53:02.846Z,12.80
2023-03-25T13:55:37.906Z,12.90
2023-03-25T13:58:22.727Z,12.90
2023-03-25T14:01:17.576Z,12.80
2023-03-25T14:04:22.419Z,12.90
2023-03-25T19:45:44.411Z,8.00
2023-03-25T19:48:11.004Z,8.00
2023-03-25T19:50:37.616Z,8.00
2023-03-25T19:53:04.629Z,8.00
2023-03-25T19:55:31.420Z,8.00
2023-03-25T19:57:58.361Z,8.00
2023-03-25T20:00:26.725Z,8.00
2023-03-25T22:05:57.139Z,7.80
2023-03-25T22:08:24.356Z,7.80
2023-03-25T22:10:50.911Z,7.80
2023-03-25T22:13:17.461Z,7.80
2023-03-25T22:15:44.002Z,7.70
2023-03-25T22:18:10.541Z,7.70
2023-03-25T22:20:37.134Z,7.70
2023-03-25T22:23:03.681Z,7.60
2023-03-25T22:25:30.270Z,7.60
2023-03-25T22:27:56.797Z,7.60
2023-03-25T22:30:23.380Z,7.60
2023-03-25T22:32:49.966Z,7.60
2023-03-25T22:35:16.590Z,7.60
2023-03-25T22:37:43.196Z,7.60
2023-03-25T22:40:10.348Z,7.60
2023-03-25T22:42:37.004Z,7.60
2023-03-25T22:45:04.153Z,7.70
2023-03-25T22:47:30.777Z,7.60
2023-03-25T22:49:57.311Z,7.60
2023-03-25T22:52:23.844Z,7.50
2023-03-25T22:54:50.442Z,7.40
2023-03-25T22:57:18.172Z,7.40
2023-03-25T22:59:44.770Z,7.40
2023-03-25T23:02:11.730Z,7.40
2023-03-25T23:04:38.303Z,7.30
2023-03-25T23:07:08.410Z,7.30
2023-03-25T23:09:36.059Z,7.30
2023-03-25T23:12:02.717Z,7.40
2023-03-25T23:14:29.276Z,7.30
2023-03-25T23:16:55.840Z,7.30
2023-03-25T23:19:22.813Z,7.40
2023-03-25T23:21:49.369Z,7.40
2023-03-25T23:24:15.937Z,7.40
2023-03-25T23:26:42.478Z,7.40
2023-03-25T23:29:10.926Z,7.40
2023-03-25T23:31:39.880Z,7.40
2023-03-25T23:34:08.705Z,7.30
2023-03-25T23:36:36.800Z,7.30
2023-03-25T23:39:05.360Z,7.40
2023-03-25T23:41:31.915Z,7.30
2023-03-25T23:43:58.603Z,7.30
2023-03-25T23:46:26.328Z,7.30
2023-03-25T23:48:53.718Z,7.30
2023-03-25T23:51:22.577Z,7.30
2023-03-25T23:53:50.763Z,7.30
2023-03-25T23:56:19.953Z,7.20
2023-03-25T23:58:46.530Z,7.20
